createdAt,value
2023-01-03T00:02:22.080Z,6.22
2023-01-03T00:04:50.005Z,6.23
2023-01-03T00:07:34.045Z,6.24
2023-01-03T00:10:02.160Z,6.24
2023-01-03T00:12:31.384Z,6.24
2023-01-03T00:14:58.761Z,6.25
2023-01-03T00:17:25.699Z,6.26
2023-01-03T00:19:52.565Z,6.26
2023-01-03T00:22:19.347Z,6.25
2023-01-03T00:24:46.570Z,6.26
2023-01-03T00:27:13.571Z,6.26
2023-01-03T00:29:40.377Z,6.27
2023-01-03T00:32:07.270Z,6.26
2023-01-03T00:34:34.175Z,6.27
2023-01-03T00:37:01.101Z,6.27
2023-01-03T00:39:27.969Z,6.26
2023-01-03T00:41:54.810Z,6.26
2023-01-03T00:44:21.750Z,6.28
2023-01-03T00:46:48.607Z,6.29
2023-01-03T00:49:15.508Z,6.29
2023-01-03T00:51:42.761Z,6.28
2023-01-03T00:54:11.926Z,6.29
2023-01-03T00:56:40.945Z,6.30
2023-01-03T00:59:07.860Z,6.30
2023-01-03T01:01:46.250Z,6.29
2023-01-03T01:04:16.421Z,6.30
2023-01-03T01:06:44.005Z,6.31
2023-01-03T01:09:14.829Z,6.32
2023-01-03T01:11:41.905Z,6.32
2023-01-03T01:14:20.134Z,6.32
2023-01-03T01:16:47.996Z,6.33
2023-01-03T01:19:15.266Z,6.33
2023-01-03T01:21:43.151Z,6.33
2023-01-03T01:24:14.328Z,6.32
2023-01-03T01:26:46.131Z,6.32
2023-01-03T01:29:13.256Z,6.32
2023-01-03T01:31:40.279Z,6.33
2023-01-03T01:34:07.130Z,6.32
2023-01-03T01:36:37.630Z,6.32
2023-01-03T01:39:05.350Z,6.31
2023-01-03T01:41:51.176Z,6.33
2023-01-03T01:44:39.679Z,6.31
2023-01-03T01:47:10.009Z,6.31
2023-01-03T01:49:36.867Z,6.31
2023-01-03T01:52:03.708Z,6.30
2023-01-03T01:54:30.549Z,6.29
2023-01-03T01:56:57.410Z,6.28
2023-01-03T01:59:24.252Z,6.28
2023-01-03T02:01:52.795Z,6.25
2023-01-03T02:04:21.487Z,6.26
2023-01-03T02:06:48.301Z,6.24
2023-01-03T02:09:15.145Z,6.24
2023-01-03T02:12:15.823Z,6.23
2023-01-03T02:14:46.413Z,6.21
2023-01-03T02:17:16.366Z,6.20
2023-01-03T02:19:52.001Z,6.20
2023-01-03T02:22:37.165Z,6.21
2023-01-03T02:25:04.043Z,6.20
2023-01-03T02:27:30.832Z,6.21
2023-01-03T02:30:09.968Z,6.23
2023-01-03T02:32:43.527Z,6.22
2023-01-03T02:35:13.328Z,6.22
2023-01-03T02:37:41.141Z,6.22
2023-01-03T02:40:08.083Z,6.22
2023-01-03T02:42:55.727Z,6.21
2023-01-03T02:45:37.823Z,6.21
2023-01-03T02:48:06.591Z,6.20
2023-01-03T02:50:35.172Z,6.19
2023-01-03T02:53:03.119Z,6.19
2023-01-03T02:55:30.925Z,6.18
2023-01-03T02:58:05.245Z,6.17
2023-01-03T03:00:33.073Z,6.16
2023-01-03T03:03:01.111Z,6.14
2023-01-03T03:05:29.125Z,6.12
2023-01-03T03:07:56.071Z,6.11
2023-01-03T03:10:41.698Z,6.11
2023-01-03T03:13:27.324Z,6.09
2023-01-03T03:16:03.571Z,6.08
2023-01-03T03:18:30.530Z,6.06
2023-01-03T03:21:15.919Z,6.04
2023-01-03T03:24:01.556Z,6.02
2023-01-03T03:26:31.700Z,6.01
2023-01-03T03:29:00.671Z,6.00
2023-01-03T03:31:57.200Z,5.99
2023-01-03T03:34:25.230Z,5.97
2023-01-03T03:37:01.315Z,5.94
2023-01-03T03:39:46.799Z,5.92
2023-01-03T03:42:44.700Z,5.89
2023-01-03T03:45:13.447Z,5.86
2023-01-03T03:47:45.629Z,5.84
2023-01-03T03:50:28.081Z,5.83
2023-01-03T03:52:56.184Z,5.82
2023-01-03T03:55:24.540Z,5.78
2023-01-03T03:57:56.348Z,5.76
2023-01-03T04:00:24.551Z,5.74
2023-01-03T04:02:51.468Z,5.71
2023-01-03T04:05:19.739Z,5.70
2023-01-03T04:07:46.854Z,5.69
2023-01-03T04:10:13.981Z,5.67
2023-01-03T04:12:40.962Z,5.66
2023-01-03T04:15:08.089Z,5.65
2023-01-03T04:17:34.969Z,5.63
2023-01-03T04:20:01.981Z,5.61
2023-01-03T04:22:28.890Z,5.62
2023-01-03T04:24:55.763Z,5.60
2023-01-03T04:27:22.840Z,5.59
2023-01-03T04:29:49.691Z,5.58
2023-01-03T04:32:16.537Z,5.57
2023-01-03T04:34:43.773Z,5.57
2023-01-03T04:37:10.724Z,5.55
2023-01-03T04:39:37.600Z,5.53
2023-01-03T04:42:24.556Z,5.53
2023-01-03T04:44:51.504Z,5.53
2023-01-03T04:47:18.460Z,5.54
2023-01-03T04:49:46.584Z,5.51
2023-01-03T04:52:16.633Z,5.52
2023-01-03T04:54:43.665Z,5.52
2023-01-03T04:57:10.740Z,5.51
2023-01-03T04:59:37.933Z,5.50
2023-01-03T05:02:04.876Z,5.50
2023-01-03T05:04:32.236Z,5.50
2023-01-03T05:06:59.215Z,5.49
2023-01-03T05:09:27.408Z,5.48
2023-01-03T05:11:54.302Z,5.47
2023-01-03T05:14:21.269Z,5.45
2023-01-03T05:16:48.148Z,5.44
2023-01-03T05:19:15.094Z,5.43
2023-01-03T05:22:00.755Z,5.42
2023-01-03T05:24:56.404Z,5.42
2023-01-03T05:27:23.401Z,5.40
2023-01-03T05:29:50.551Z,5.38
2023-01-03T05:32:17.493Z,5.39
2023-01-03T05:34:44.435Z,5.39
2023-01-03T05:37:11.367Z,5.38
2023-01-03T05:39:38.205Z,5.37
2023-01-03T05:42:05.131Z,5.37
2023-01-03T05:44:32.863Z,5.36
2023-01-03T05:47:00.015Z,5.35
2023-01-03T05:49:26.900Z,5.36
2023-01-03T05:51:53.830Z,5.34
2023-01-03T05:54:21.422Z,5.33
2023-01-03T05:56:48.427Z,5.31
2023-01-03T05:59:16.268Z,5.31
2023-01-03T06:01:43.303Z,5.31
2023-01-03T06:04:10.305Z,5.29
2023-01-03T06:06:37.291Z,5.29
2023-01-03T06:09:04.281Z,5.27
2023-01-03T06:11:31.208Z,5.27
2023-01-03T06:13:58.127Z,5.26
2023-01-03T06:16:43.672Z,5.25
2023-01-03T06:19:10.805Z,5.24
2023-01-03T06:21:37.822Z,5.24
2023-01-03T06:24:04.975Z,5.23
2023-01-03T06:26:31.946Z,5.23
2023-01-03T06:28:58.888Z,5.22
2023-01-03T06:31:25.959Z,5.22
2023-01-03T06:33:53.485Z,5.21
2023-01-03T06:36:21.399Z,5.20
2023-01-03T06:38:48.390Z,5.20
2023-01-03T06:41:15.901Z,5.20
2023-01-03T06:43:42.816Z,5.17
2023-01-03T06:46:28.899Z,5.16
2023-01-03T06:49:16.285Z,5.16
2023-01-03T06:52:01.869Z,5.16
2023-01-03T06:54:32.425Z,5.15
2023-01-03T06:56:59.464Z,5.14
2023-01-03T06:59:27.546Z,5.13
2023-01-03T07:01:54.880Z,5.13
2023-01-03T07:04:22.960Z,5.13
2023-01-03T07:06:50.050Z,5.13
2023-01-03T07:09:18.176Z,5.13
2023-01-03T07:11:45.240Z,5.13
2023-01-03T07:14:12.410Z,5.12
2023-01-03T07:16:40.160Z,5.12
2023-01-03T07:19:07.501Z,5.12
2023-01-03T07:21:34.649Z,5.11
2023-01-03T07:24:02.008Z,5.11
2023-01-03T07:26:31.037Z,5.11
2023-01-03T07:28:59.115Z,5.10
2023-01-03T07:31:26.248Z,5.09
2023-01-03T07:33:53.450Z,5.10
2023-01-03T07:36:20.590Z,5.11
2023-01-03T07:38:47.504Z,5.11
2023-01-03T07:41:14.601Z,5.11
2023-01-03T07:43:45.306Z,5.10
2023-01-03T07:46:22.282Z,5.10
2023-01-03T07:48:53.728Z,5.11
2023-01-03T07:51:23.270Z,5.11
2023-01-03T07:53:50.401Z,5.11
2023-01-03T07:56:21.324Z,5.12
2023-01-03T07:58:48.668Z,5.11
2023-01-03T08:01:16.229Z,5.12
2023-01-03T08:03:43.298Z,5.13
2023-01-03T08:06:10.824Z,5.14
2023-01-03T08:08:37.631Z,5.16
2023-01-03T08:11:23.255Z,5.17
2023-01-03T08:13:50.441Z,5.19
2023-01-03T08:16:18.067Z,5.21
2023-01-03T08:18:45.258Z,5.22
2023-01-03T08:21:13.449Z,5.23
2023-01-03T08:23:40.533Z,5.25
2023-01-03T08:26:08.318Z,5.27
2023-01-03T08:28:35.380Z,5.28
2023-01-03T08:31:03.139Z,5.31
2023-01-03T08:33:31.519Z,5.34
2023-01-03T08:36:00.839Z,5.37
2023-01-03T08:38:29.315Z,5.39
2023-01-03T08:40:56.157Z,5.41
2023-01-03T08:43:23.079Z,5.44
2023-01-03T08:45:50.027Z,5.45
2023-01-03T08:48:17.231Z,5.48
2023-01-03T08:50:44.062Z,5.51
2023-01-03T08:53:11.173Z,5.54
2023-01-03T08:55:38.022Z,5.57
2023-01-03T08:58:04.779Z,5.62
2023-01-03T09:00:31.682Z,5.66
2023-01-03T09:03:00.471Z,5.71
2023-01-03T09:05:27.992Z,5.75
2023-01-03T09:07:55.221Z,5.80
2023-01-03T09:10:22.253Z,5.84
2023-01-03T09:12:52.006Z,5.89
2023-01-03T09:15:19.182Z,5.93
2023-01-03T09:17:47.531Z,5.96
2023-01-03T09:20:14.793Z,5.99
2023-01-03T09:22:41.683Z,6.02
2023-01-03T09:25:08.834Z,6.06
2023-01-03T09:27:38.348Z,6.09
2023-01-03T09:30:06.387Z,6.12
2023-01-03T09:32:33.567Z,6.16
2023-01-03T09:35:00.411Z,6.20
2023-01-03T09:37:27.255Z,6.23
2023-01-03T09:39:54.081Z,6.27
2023-01-03T09:42:43.115Z,6.31
2023-01-03T09:45:11.558Z,6.37
2023-01-03T09:47:38.443Z,6.41
2023-01-03T09:53:12.033Z,6.52
2023-01-03T09:56:13.521Z,6.57
2023-01-03T09:58:59.557Z,6.63
2023-01-03T10:01:52.956Z,6.68
2023-01-03T10:04:46.142Z,6.73
2023-01-03T10:07:44.988Z,6.79
2023-01-03T10:10:19.436Z,6.84
2023-01-03T10:12:46.357Z,6.88
2023-01-03T10:15:13.187Z,6.93
2023-01-03T10:17:43.963Z,6.99
2023-01-03T10:20:15.349Z,7.04
2023-01-03T10:22:42.272Z,7.13
2023-01-03T10:25:10.803Z,7.17
2023-01-03T10:27:45.185Z,7.19
2023-01-03T10:30:18.700Z,7.24
2023-01-03T10:32:58.907Z,7.28
2023-01-03T10:35:35.376Z,7.31
2023-01-03T10:38:02.400Z,7.37
2023-01-03T10:40:45.805Z,7.41
2023-01-03T10:43:19.694Z,7.47
2023-01-03T10:45:50.540Z,7.51
2023-01-03T10:48:17.395Z,7.58
2023-01-03T10:50:44.392Z,7.63
2023-01-03T10:53:11.243Z,7.68
2023-01-03T10:55:44.165Z,7.72
2023-01-03T10:58:23.856Z,7.78
2023-01-03T11:00:51.157Z,7.83
2023-01-03T11:03:24.840Z,7.88
2023-01-03T11:05:57.833Z,7.92
2023-01-03T11:08:34.982Z,7.98
2023-01-03T11:11:01.815Z,8.04
2023-01-03T11:13:34.870Z,8.07
2023-01-03T11:16:02.623Z,8.13
2023-01-03T11:18:29.780Z,8.19
2023-01-03T11:21:02.237Z,8.24
2023-01-03T11:23:32.136Z,8.31
2023-01-03T11:26:05.482Z,8.36
2023-01-03T11:28:38.540Z,8.41
2023-01-03T11:31:08.639Z,8.46
2023-01-03T11:33:46.129Z,8.52
2023-01-03T11:36:16.247Z,8.57
2023-01-03T11:39:01.886Z,8.62
2023-01-03T11:41:34.768Z,8.67
2023-01-03T11:44:04.739Z,8.72
2023-01-03T11:46:44.739Z,8.76
2023-01-03T11:49:31.249Z,8.80
2023-01-03T11:52:14.601Z,8.84
2023-01-03T11:54:51.008Z,8.89
2023-01-03T11:57:45.755Z,8.93
2023-01-03T12:00:22.317Z,8.96
2023-01-03T12:02:52.802Z,8.96
2023-01-03T12:05:43.455Z,8.98
2023-01-03T12:08:23.010Z,9.02
2023-01-03T12:10:57.298Z,9.01
2023-01-03T12:13:33.399Z,9.07
2023-01-03T12:16:07.220Z,9.10
2023-01-03T12:18:41.105Z,9.13
2023-01-03T12:21:31.735Z,9.13
2023-01-03T12:24:06.081Z,9.16
2023-01-03T12:26:33.221Z,9.18
2023-01-03T12:29:12.181Z,9.19
2023-01-03T12:31:47.736Z,9.20
2023-01-03T12:34:19.492Z,9.20
2023-01-03T12:36:48.404Z,9.20
2023-01-03T12:39:15.299Z,9.20
2023-01-03T12:41:46.825Z,9.20
2023-01-03T12:44:16.025Z,9.19
2023-01-03T12:46:44.785Z,9.19
2023-01-03T12:49:14.630Z,9.19
2023-01-03T12:51:41.477Z,9.19
2023-01-03T12:54:15.182Z,9.19
2023-01-03T12:56:48.045Z,9.19
2023-01-03T12:59:25.783Z,9.19
2023-01-03T13:01:55.196Z,9.18
2023-01-03T13:04:26.369Z,9.17
2023-01-03T13:06:54.716Z,9.18
2023-01-03T13:09:22.912Z,9.18
2023-01-03T13:11:53.442Z,9.19
2023-01-03T13:14:23.112Z,9.18
2023-01-03T13:16:50.313Z,9.18
2023-01-03T13:19:20.441Z,9.18
2023-01-03T13:21:51.550Z,9.17
2023-01-03T13:24:37.373Z,9.17
2023-01-03T13:27:16.584Z,9.17
2023-01-03T13:29:44.496Z,9.17
2023-01-03T13:32:20.461Z,9.17
2023-01-03T13:34:56.525Z,9.16
2023-01-03T13:37:23.476Z,9.16
2023-01-03T13:41:07.537Z,9.15
2023-01-03T13:43:16.877Z,9.15
2023-01-03T13:45:43.944Z,9.13
2023-01-03T13:48:19.474Z,9.14
2023-01-03T13:51:07.087Z,9.13
2023-01-03T13:53:55.820Z,9.12
2023-01-03T13:56:29.209Z,9.11
2023-01-03T13:59:14.181Z,9.09
2023-01-03T14:01:41.228Z,9.09
2023-01-03T14:04:30.732Z,9.07
2023-01-03T14:07:16.052Z,9.07
2023-01-03T14:10:06.304Z,9.05
2023-01-03T14:12:51.970Z,9.05
2023-01-03T14:15:25.902Z,9.03
2023-01-03T14:17:54.678Z,9.03
2023-01-03T14:20:22.586Z,9.01
2023-01-03T14:22:50.291Z,8.99
2023-01-03T14:25:33.045Z,9.00
2023-01-03T14:28:15.705Z,8.98
2023-01-03T14:30:42.602Z,8.97
2023-01-03T14:33:19.157Z,8.96
2023-01-03T14:35:46.183Z,8.95
2023-01-03T14:38:39.374Z,8.93
2023-01-03T14:41:06.301Z,8.92
2023-01-03T14:43:33.619Z,8.90
2023-01-03T14:46:01.719Z,8.90
2023-01-03T14:48:28.572Z,8.78
2023-01-03T14:50:55.561Z,8.87
2023-01-03T14:53:22.550Z,8.86
2023-01-03T14:55:51.004Z,8.85
2023-01-03T14:58:21.036Z,8.82
2023-01-03T15:00:48.353Z,8.81
2023-01-03T15:03:15.374Z,8.79
2023-01-03T15:05:42.405Z,8.76
2023-01-03T15:08:15.633Z,8.76
2023-01-03T15:10:48.086Z,8.73
2023-01-03T15:13:25.599Z,8.72
2023-01-03T15:15:53.519Z,8.71
2023-01-03T15:18:21.157Z,8.70
2023-01-03T15:20:48.280Z,8.67
2023-01-03T15:23:25.609Z,8.66
2023-01-03T15:25:53.366Z,8.64
2023-01-03T15:28:25.552Z,8.63
2023-01-03T15:30:56.214Z,8.61
2023-01-03T15:33:33.780Z,8.59
2023-01-03T15:36:02.728Z,8.58
2023-01-03T15:38:36.556Z,8.57
2023-01-03T15:42:06.394Z,8.55
2023-01-03T15:44:38.163Z,8.53
2023-01-03T15:47:06.469Z,8.52
2023-01-03T15:49:37.685Z,8.50
2023-01-03T15:52:04.786Z,8.49
2023-01-03T15:54:31.658Z,8.46
2023-01-03T15:57:02.373Z,8.45
2023-01-03T15:59:30.408Z,8.45
2023-01-03T16:01:57.390Z,8.43
2023-01-03T16:04:24.380Z,8.41
2023-01-03T16:06:52.873Z,8.40
2023-01-03T16:09:20.104Z,8.39
2023-01-03T16:11:47.200Z,8.38
2023-01-03T16:14:15.479Z,8.35
2023-01-03T16:16:42.907Z,8.34
2023-01-03T16:19:22.945Z,8.32
2023-01-03T16:22:16.023Z,8.31
2023-01-03T16:24:36.980Z,8.29
2023-01-03T16:27:06.462Z,8.27
2023-01-03T16:29:33.330Z,8.25
2023-01-03T16:32:00.190Z,8.24
2023-01-03T16:34:33.463Z,8.22
2023-01-03T16:37:00.824Z,8.20
2023-01-03T16:39:27.733Z,8.19
2023-01-03T16:42:13.219Z,8.18
2023-01-03T16:44:40.782Z,8.15
2023-01-03T16:47:10.240Z,8.16
2023-01-03T16:49:37.081Z,8.14
2023-01-03T16:52:04.045Z,8.13
2023-01-03T16:54:30.945Z,8.12
2023-01-03T16:56:57.726Z,8.10
2023-01-03T16:59:24.750Z,8.08
2023-01-03T17:01:51.770Z,8.08
2023-01-03T17:04:18.780Z,8.06
2023-01-03T17:06:45.736Z,8.05
2023-01-03T17:09:19.524Z,8.04
2023-01-03T17:11:46.397Z,8.04
2023-01-03T17:14:22.418Z,8.02
2023-01-03T17:16:49.741Z,8.00
2023-01-03T17:22:21.980Z,7.97
2023-01-03T17:24:49.347Z,7.95
2023-01-03T17:27:17.293Z,7.94
2023-01-03T17:29:44.128Z,7.93
2023-01-03T17:32:18.124Z,7.92
2023-01-03T17:34:45.016Z,7.91
2023-01-03T17:37:21.038Z,7.89
2023-01-03T17:39:50.038Z,7.88
2023-01-03T17:42:16.888Z,7.87
2023-01-03T17:44:44.785Z,7.86
2023-01-03T17:47:38.770Z,7.85
2023-01-03T17:50:05.796Z,7.84
2023-01-03T17:52:33.695Z,7.83
2023-01-03T17:55:00.492Z,7.79
2023-01-03T17:57:27.442Z,7.79
2023-01-03T17:59:54.387Z,7.78
2023-01-03T18:02:22.488Z,7.77
2023-01-03T18:05:15.204Z,7.75
2023-01-03T18:07:36.901Z,7.74
2023-01-03T18:10:03.795Z,7.70
2023-01-03T18:12:31.295Z,7.71
2023-01-03T18:14:58.094Z,7.69
2023-01-03T18:17:26.104Z,7.67
2023-01-03T18:19:53.026Z,7.66
2023-01-03T18:22:20.028Z,7.63
2023-01-03T18:24:46.893Z,7.61
2023-01-03T18:27:13.770Z,7.60
2023-01-03T18:29:40.604Z,7.59
2023-01-03T18:32:27.427Z,7.56
2023-01-03T18:34:54.452Z,7.55
2023-01-03T18:37:21.571Z,7.54
2023-01-03T18:39:48.422Z,7.51
2023-01-03T18:42:34.023Z,7.51
2023-01-03T18:45:00.912Z,7.50
2023-01-03T18:47:27.666Z,7.47
2023-01-03T18:49:54.582Z,7.47
2023-01-03T18:52:25.181Z,7.45
2023-01-03T18:54:52.023Z,7.43
2023-01-03T18:57:20.753Z,7.42
2023-01-03T18:59:49.512Z,7.41
2023-01-03T19:02:18.344Z,7.39
2023-01-03T19:04:51.029Z,7.38
2023-01-03T19:07:19.260Z,7.35
2023-01-03T19:09:46.104Z,7.33
2023-01-03T19:12:14.069Z,7.32
2023-01-03T19:14:46.404Z,7.31
2023-01-03T19:17:14.168Z,7.29
2023-01-03T19:19:41.048Z,7.28
2023-01-03T19:22:16.222Z,7.26
2023-01-03T19:24:44.555Z,7.24
2023-01-03T19:27:13.295Z,7.22
2023-01-03T19:29:40.281Z,7.21
2023-01-03T19:32:10.947Z,7.19
2023-01-03T19:34:37.787Z,7.16
2023-01-03T19:37:04.690Z,7.15
2023-01-03T19:39:37.093Z,7.12
2023-01-03T19:42:22.941Z,7.09
2023-01-03T19:44:50.089Z,7.07
2023-01-03T19:47:18.058Z,7.05
2023-01-03T19:49:47.389Z,7.02
2023-01-03T19:52:14.551Z,7.01
2023-01-03T19:54:41.444Z,6.98
2023-01-03T19:57:24.706Z,6.96
2023-01-03T19:59:52.777Z,6.94
2023-01-03T20:02:40.505Z,6.92
2023-01-03T20:05:19.727Z,6.90
2023-01-03T20:07:50.100Z,6.89
2023-01-03T20:10:18.518Z,6.87
2023-01-03T20:12:46.125Z,6.85
2023-01-03T20:15:19.309Z,6.83
2023-01-03T20:17:47.960Z,6.81
2023-01-03T20:20:18.997Z,6.80
2023-01-03T20:23:05.783Z,6.78
2023-01-03T20:25:33.352Z,6.77
2023-01-03T20:28:00.762Z,6.75
2023-01-03T20:30:28.682Z,6.74
2023-01-03T20:32:55.805Z,6.72
2023-01-03T20:38:10.934Z,6.70
2023-01-03T20:40:38.312Z,6.68
2023-01-03T20:43:07.226Z,6.67
2023-01-03T20:45:34.471Z,6.65
2023-01-03T20:48:01.361Z,6.64
2023-01-03T20:50:28.753Z,6.63
2023-01-03T20:52:56.236Z,6.62
2023-01-03T20:55:23.792Z,6.61
2023-01-03T20:57:51.093Z,6.60
2023-01-03T21:00:31.540Z,6.58
2023-01-03T21:03:01.611Z,6.57
2023-01-03T21:05:28.966Z,6.55
2023-01-03T21:08:18.646Z,6.55
2023-01-03T21:10:52.860Z,6.53
2023-01-03T21:13:24.102Z,6.51
2023-01-03T21:15:52.457Z,6.51
2023-01-03T21:18:19.636Z,6.49
2023-01-03T21:20:49.378Z,6.49
2023-01-03T21:23:24.339Z,6.48
2023-01-03T21:25:55.661Z,6.47
2023-01-03T21:28:23.371Z,6.46
2023-01-03T21:30:50.670Z,6.46
2023-01-03T21:33:17.876Z,6.44
2023-01-03T21:35:45.638Z,6.42
2023-01-03T21:38:12.700Z,6.41
2023-01-03T21:40:39.760Z,6.42
2023-01-03T21:43:08.112Z,6.40
2023-01-03T21:45:48.568Z,6.40
2023-01-03T21:48:18.392Z,6.38
2023-01-03T21:50:46.335Z,6.38
2023-01-03T21:53:14.563Z,6.37
2023-01-03T21:55:41.894Z,6.36
2023-01-03T21:58:09.379Z,6.34
2023-01-03T22:00:42.695Z,6.33
2023-01-03T22:03:32.207Z,6.33
2023-01-03T22:06:11.129Z,6.32
2023-01-03T22:08:38.839Z,6.31
2023-01-03T22:11:07.085Z,6.30
2023-01-03T22:13:36.211Z,6.29
2023-01-03T22:16:07.457Z,6.29
2023-01-03T22:18:35.093Z,6.28
2023-01-03T22:21:07.148Z,6.26
2023-01-03T22:23:34.316Z,6.25
2023-01-03T22:26:02.255Z,6.25
2023-01-03T22:28:35.256Z,6.23
2023-01-03T22:31:02.686Z,6.22
2023-01-03T22:33:30.274Z,6.19
2023-01-03T22:35:58.104Z,6.20
2023-01-03T22:38:25.067Z,6.17
2023-01-03T22:40:51.872Z,6.15
2023-01-03T22:43:18.718Z,6.14
2023-01-03T22:45:45.842Z,6.12
2023-01-03T22:48:12.708Z,6.09
2023-01-03T22:50:40.005Z,6.06
2023-01-03T22:53:07.059Z,6.03
2023-01-03T22:55:33.975Z,6.02
2023-01-03T22:58:00.770Z,5.99
2023-01-03T23:00:28.074Z,5.96
2023-01-03T23:02:54.877Z,5.93
2023-01-03T23:05:21.725Z,5.90
2023-01-03T23:07:48.614Z,5.88
2023-01-03T23:10:15.539Z,5.86
2023-01-03T23:13:01.259Z,5.83
2023-01-03T23:15:31.624Z,5.80
2023-01-03T23:18:01.287Z,5.76
2023-01-03T23:20:32.361Z,5.72
2023-01-03T23:23:07.766Z,5.69
2023-01-03T23:25:35.268Z,5.65
2023-01-03T23:28:02.126Z,5.62
2023-01-03T23:30:28.947Z,5.58
2023-01-03T23:32:56.023Z,5.55
2023-01-03T23:35:22.891Z,5.52
2023-01-03T23:37:49.702Z,5.49
2023-01-03T23:40:24.255Z,5.45
2023-01-03T23:45:44.201Z,5.40
2023-01-03T23:48:30.979Z,5.35
2023-01-03T23:51:24.688Z,5.31
2023-01-03T23:54:14.787Z,5.28
